Time;durP1;ratioP1;P1;durP2;ratioP2;P2;SDS_P1;SDS_P2;PMS_P1;PMS_P2;Temp;Humidity;BMP_temperature;BMP_pressure;BME280_temperature;BME280_humidity;BME280_pressure;Samples;Min_cycle;Max_cycle;Signal;HPM_P1;HPM_P2
2021/05/19 00:00:37;;;;;;;0.90;0.60;;;23.80;44.70;;;;;;5035377;28;20056;-61
2021/05/19 00:03:03;;;;;;;2.05;0.63;;;23.80;44.70;;;;;;5035028;28;20037;-62
2021/05/19 00:05:28;;;;;;;1.02;0.60;;;23.80;44.70;;;;;;5034319;28;20552;-61
2021/05/19 00:07:54;;;;;;;1.13;0.70;;;23.80;44.70;;;;;;5044391;28;20104;-60
2021/05/19 00:10:20;;;;;;;1.20;0.60;;;23.80;44.70;;;;;;5041579;28;20056;-61
2021/05/19 00:12:45;;;;;;;1.17;0.63;;;23.80;44.70;;;;;;5042140;28;20602;-61
2021/05/19 00:15:11;;;;;;;1.25;0.50;;;23.80;44.60;;;;;;5042252;28;20029;-61
2021/05/19 00:17:45;;;;;;;1.35;0.70;;;23.80;44.60;;;;;;5039450;28;20029;-61
2021/05/19 00:20:14;;;;;;;1.05;0.50;;;23.70;44.60;;;;;;5041906;28;20440;-61
2021/05/19 00:22:40;;;;;;;0.98;0.60;;;23.70;44.60;;;;;;5041565;28;20456;-61
2021/05/19 00:25:07;;;;;;;1.73;0.60;;;23.70;44.60;;;;;;5040167;28;20025;-61
2021/05/19 00:27:33;;;;;;;1.08;0.68;;;23.70;44.50;;;;;;5040677;28;20090;-61
2021/05/19 00:29:59;;;;;;;1.23;0.77;;;23.70;44.60;;;;;;5033045;28;20064;-61
2021/05/19 00:32:24;;;;;;;0.90;0.70;;;23.70;44.50;;;;;;5036559;28;20033;-61
2021/05/19 00:34:50;;;;;;;1.50;0.60;;;23.70;44.50;;;;;;5041675;28;20551;-60
2021/05/19 00:37:16;;;;;;;1.90;0.60;;;23.70;44.50;;;;;;5043124;28;20029;-61
2021/05/19 00:39:45;;;;;;;0.50;0.50;;;23.70;44.50;;;;;;5042872;28;20033;-60
2021/05/19 00:42:12;;;;;;;1.10;0.63;;;23.70;44.60;;;;;;5040962;28;20530;-61
2021/05/19 00:44:38;;;;;;;0.98;0.60;;;23.70;44.50;;;;;;5040665;28;20472;-61
2021/05/19 00:47:04;;;;;;;1.05;0.60;;;23.70;44.50;;;;;;5031502;28;20075;-62
2021/05/19 00:49:31;;;;;;;1.25;0.63;;;23.70;44.50;;;;;;5031884;28;20048;-61
2021/05/19 00:51:56;;;;;;;0.93;0.52;;;23.70;44.50;;;;;;5036063;28;20043;-61
2021/05/19 00:54:22;;;;;;;1.08;0.60;;;23.70;44.50;;;;;;5033477;28;20033;-61
2021/05/19 00:56:48;;;;;;;1.05;0.60;;;23.70;44.50;;;;;;5042609;28;20033;-61
2021/05/19 00:59:14;;;;;;;1.15;0.60;;;23.70;44.50;;;;;;5031240;28;20512;-60
2021/05/19 01:01:40;;;;;;;1.60;0.70;;;23.70;44.50;;;;;;5033165;28;20049;-61
2021/05/19 01:04:07;;;;;;;1.33;0.55;;;23.70;44.50;;;;;;5040592;28;20036;-62
2021/05/19 01:06:51;;;;;;;0.70;0.50;;;23.70;44.50;;;;;;5042734;28;20024;-61
2021/05/19 01:09:35;;;;;;;1.17;0.60;;;23.70;44.50;;;;;;5037323;28;20051;-59
2021/05/19 01:12:08;;;;;;;1.13;0.50;;;23.70;44.50;;;;;;5037034;28;20040;-61
2021/05/19 01:14:34;;;;;;;1.23;0.50;;;23.60;44.40;;;;;;5036209;28;20384;-60
2021/05/19 01:17:00;;;;;;;1.27;0.70;;;23.60;44.40;;;;;;5040947;28;20037;-60
2021/05/19 01:19:26;;;;;;;1.50;0.80;;;23.70;44.50;;;;;;5039227;28;20028;-61
2021/05/19 01:21:54;;;;;;;0.80;0.60;;;23.70;44.50;;;;;;5039963;28;20037;-61
2021/05/19 01:24:20;;;;;;;1.88;0.60;;;23.70;44.50;;;;;;5042018;28;20139;-60
2021/05/19 01:26:46;;;;;;;1.02;0.60;;;23.60;44.40;;;;;;5043033;28;20036;-61
2021/05/19 01:29:12;;;;;;;0.50;0.50;;;23.60;44.50;;;;;;5031843;28;20025;-61
2021/05/19 01:31:38;;;;;;;1.70;0.70;;;23.60;44.40;;;;;;5023396;28;20167;-61
2021/05/19 01:34:04;;;;;;;0.80;0.60;;;23.60;44.40;;;;;;5034164;28;20036;-62
2021/05/19 01:36:30;;;;;;;0.50;0.50;;;23.60;44.40;;;;;;5040782;28;20102;-61
2021/05/19 01:38:56;;;;;;;0.60;0.52;;;23.60;44.40;;;;;;5041970;28;20420;-60
2021/05/19 01:41:21;;;;;;;0.60;0.60;;;23.60;44.40;;;;;;5033762;28;20048;-60
2021/05/19 01:43:47;;;;;;;0.82;0.68;;;23.60;44.40;;;;;;5031782;28;20044;-61
2021/05/19 01:46:13;;;;;;;0.70;0.50;;;23.60;44.40;;;;;;5041896;28;20078;-61
2021/05/19 01:48:39;;;;;;;0.65;0.50;;;23.60;44.50;;;;;;5043118;28;20037;-60
2021/05/19 01:51:06;;;;;;;1.20;0.60;;;23.60;44.40;;;;;;5040321;28;20033;-61
2021/05/19 01:53:33;;;;;;;0.40;0.40;;;23.60;44.90;;;;;;5028728;28;20036;-60
2021/05/19 01:56:01;;;;;;;0.90;0.60;;;23.60;44.50;;;;;;5038800;28;20044;-61
2021/05/19 01:58:28;;;;;;;0.80;0.50;;;23.60;44.50;;;;;;5041356;28;20147;-61
2021/05/19 02:00:54;;;;;;;0.50;0.50;;;23.60;44.40;;;;;;5033769;28;20067;-61
2021/05/19 02:03:19;;;;;;;0.88;0.50;;;23.60;44.40;;;;;;5041375;28;20337;-61
2021/05/19 02:05:46;;;;;;;0.63;0.50;;;23.60;44.40;;;;;;5038236;28;20473;-60
2021/05/19 02:08:12;;;;;;;0.68;0.60;;;23.50;44.40;;;;;;5040548;28;20064;-61
2021/05/19 02:10:38;;;;;;;0.85;0.70;;;23.50;44.40;;;;;;5040271;28;20586;-61
2021/05/19 02:13:09;;;;;;;0.65;0.50;;;23.60;44.40;;;;;;5028158;28;20041;-61
2021/05/19 02:15:35;;;;;;;0.75;0.50;;;23.50;44.40;;;;;;5034600;28;20028;-61
2021/05/19 02:18:01;;;;;;;0.80;0.60;;;23.60;44.40;;;;;;5044360;28;20033;-60
2021/05/19 02:20:28;;;;;;;1.10;0.60;;;23.60;44.40;;;;;;5042216;28;20127;-60
2021/05/19 02:22:54;;;;;;;0.60;0.50;;;23.50;44.30;;;;;;5041133;28;20317;-61
2021/05/19 02:25:21;;;;;;;0.60;0.60;;;23.60;44.40;;;;;;5044330;28;20039;-61
2021/05/19 02:27:49;;;;;;;0.52;0.40;;;23.50;44.40;;;;;;5046565;28;20028;-60
2021/05/19 02:30:16;;;;;;;0.60;0.60;;;23.50;44.40;;;;;;5026847;28;20045;-61
2021/05/19 02:32:42;;;;;;;0.47;0.47;;;23.50;44.40;;;;;;5041158;28;20032;-60
2021/05/19 02:35:09;;;;;;;0.93;0.50;;;23.50;44.40;;;;;;5045724;28;20040;-61
2021/05/19 02:37:35;;;;;;;0.77;0.60;;;23.50;44.30;;;;;;5045551;28;20065;-61
2021/05/19 02:40:02;;;;;;;1.20;0.45;;;23.50;44.30;;;;;;5045313;28;20467;-61
2021/05/19 02:42:27;;;;;;;0.60;0.50;;;23.50;44.30;;;;;;5042218;28;20031;-61
2021/05/19 02:44:53;;;;;;;0.65;0.47;;;23.50;44.30;;;;;;5044449;28;20025;-61
2021/05/19 02:47:19;;;;;;;1.00;0.60;;;23.50;44.30;;;;;;5046013;28;20064;-60
2021/05/19 02:49:44;;;;;;;0.50;0.50;;;23.50;44.30;;;;;;5046293;28;20029;-61
2021/05/19 02:52:10;;;;;;;0.77;0.52;;;23.50;44.40;;;;;;5030634;28;20543;-61
2021/05/19 02:54:36;;;;;;;0.57;0.50;;;23.50;44.40;;;;;;5032999;28;20043;-60
2021/05/19 02:57:01;;;;;;;0.70;0.47;;;23.50;44.30;;;;;;5043040;28;20435;-62
2021/05/19 02:59:27;;;;;;;0.50;0.50;;;23.50;44.40;;;;;;5040862;28;20079;-62
2021/05/19 03:01:53;;;;;;;0.80;0.57;;;23.50;44.30;;;;;;5024930;28;20574;-62
2021/05/19 03:04:18;;;;;;;0.65;0.50;;;23.50;44.40;;;;;;5035742;28;20026;-62
2021/05/19 03:06:44;;;;;;;0.75;0.55;;;23.40;44.30;;;;;;5028085;28;20048;-62
2021/05/19 03:09:10;;;;;;;0.85;0.50;;;23.40;44.30;;;;;;5039697;28;20088;-62
2021/05/19 03:11:35;;;;;;;0.85;0.60;;;23.40;44.30;;;;;;5039125;28;20499;-62
2021/05/19 03:14:02;;;;;;;1.08;0.60;;;23.40;44.30;;;;;;5044200;28;20033;-63
2021/05/19 03:16:28;;;;;;;0.60;0.50;;;23.40;44.30;;;;;;5036857;28;20119;-63
2021/05/19 03:18:54;;;;;;;0.50;0.50;;;23.40;44.30;;;;;;5043803;28;20298;-62
2021/05/19 03:21:21;;;;;;;0.60;0.50;;;23.40;44.30;;;;;;5036984;28;20032;-62
2021/05/19 03:23:46;;;;;;;0.55;0.50;;;23.40;44.30;;;;;;5037729;28;20566;-62
2021/05/19 03:26:13;;;;;;;0.45;0.40;;;23.40;44.30;;;;;;5041584;28;20115;-62
2021/05/19 03:28:38;;;;;;;0.50;0.50;;;23.40;44.30;;;;;;5040844;28;20060;-61
2021/05/19 03:31:05;;;;;;;1.60;0.73;;;23.40;44.30;;;;;;5043646;28;20563;-61
2021/05/19 03:33:31;;;;;;;0.60;0.43;;;23.40;44.30;;;;;;5037079;28;20032;-62
2021/05/19 03:35:57;;;;;;;0.47;0.47;;;23.40;44.30;;;;;;5041486;28;20030;-62
2021/05/19 03:38:23;;;;;;;0.75;0.60;;;23.40;44.30;;;;;;5037886;28;20033;-61
2021/05/19 03:40:49;;;;;;;0.50;0.50;;;23.40;44.30;;;;;;5042362;28;20045;-61
2021/05/19 03:43:15;;;;;;;0.57;0.57;;;23.40;44.30;;;;;;5033726;28;20211;-62
2021/05/19 03:45:41;;;;;;;0.73;0.50;;;23.40;44.30;;;;;;5035946;28;20269;-61
2021/05/19 03:48:06;;;;;;;1.65;0.50;;;23.40;44.30;;;;;;5042269;28;20447;-62
2021/05/19 03:50:34;;;;;;;0.60;0.60;;;23.40;44.30;;;;;;5044605;28;20040;-62
2021/05/19 03:53:02;;;;;;;0.60;0.60;;;23.40;44.30;;;;;;5039014;28;20036;-62
2021/05/19 03:55:28;;;;;;;1.50;0.60;;;23.40;44.30;;;;;;5033933;28;20033;-61
2021/05/19 03:57:54;;;;;;;1.05;0.60;;;23.40;44.30;;;;;;5042649;28;20028;-62
2021/05/19 04:00:26;;;;;;;0.60;0.40;;;23.40;44.30;;;;;;5031080;28;20032;-61
2021/05/19 04:02:52;;;;;;;0.40;0.40;;;23.40;44.30;;;;;;5029985;28;20111;-61
2021/05/19 04:05:19;;;;;;;0.50;0.50;;;23.30;44.20;;;;;;5024289;28;20057;-62
2021/05/19 04:07:47;;;;;;;0.50;0.50;;;23.30;44.20;;;;;;5041116;28;20470;-61
2021/05/19 04:10:13;;;;;;;0.55;0.50;;;23.30;44.20;;;;;;5041425;28;20451;-62
2021/05/19 04:12:38;;;;;;;0.32;0.32;;;23.30;44.20;;;;;;5032965;28;20048;-62
2021/05/19 04:15:05;;;;;;;0.47;0.47;;;23.30;44.20;;;;;;5035963;28;20036;-61
2021/05/19 04:17:30;;;;;;;0.60;0.45;;;23.30;44.20;;;;;;5043851;28;20060;-61
2021/05/19 04:19:56;;;;;;;0.63;0.40;;;23.30;44.20;;;;;;5033078;28;20063;-62
2021/05/19 04:22:22;;;;;;;0.35;0.35;;;23.30;44.20;;;;;;5040822;28;20147;-60
2021/05/19 04:24:48;;;;;;;0.80;0.52;;;23.30;44.20;;;;;;5041476;28;20029;-62
2021/05/19 04:27:13;;;;;;;0.40;0.40;;;23.30;44.20;;;;;;5043761;28;20544;-61
2021/05/19 04:29:39;;;;;;;0.95;0.40;;;23.30;44.20;;;;;;5030593;28;20396;-60
2021/05/19 04:32:05;;;;;;;0.70;0.50;;;23.30;44.20;;;;;;5040824;28;20451;-60
2021/05/19 04:34:31;;;;;;;1.05;0.63;;;23.30;44.20;;;;;;5041171;28;20196;-59
2021/05/19 04:36:56;;;;;;;0.50;0.47;;;23.30;44.20;;;;;;5041365;28;20124;-59
2021/05/19 04:39:22;;;;;;;0.45;0.45;;;23.30;44.20;;;;;;5043273;28;20068;-60
2021/05/19 04:41:47;;;;;;;0.60;0.40;;;23.30;44.30;;;;;;5037196;28;20349;-60
2021/05/19 04:44:13;;;;;;;0.40;0.40;;;23.30;44.30;;;;;;5039207;28;20029;-59
2021/05/19 04:46:39;;;;;;;1.25;0.60;;;23.30;44.30;;;;;;5040199;28;20460;-59
2021/05/19 04:49:05;;;;;;;0.82;0.50;;;23.30;44.30;;;;;;5043511;28;20710;-59
2021/05/19 04:51:30;;;;;;;1.58;0.50;;;23.30;44.30;;;;;;5033529;28;20039;-59
2021/05/19 04:53:56;;;;;;;0.65;0.50;;;23.30;44.30;;;;;;5027892;28;20467;-59
2021/05/19 04:56:22;;;;;;;0.40;0.40;;;23.30;44.30;;;;;;5041821;28;20041;-59
2021/05/19 04:58:48;;;;;;;0.57;0.47;;;23.30;44.30;;;;;;5040237;28;20080;-60
2021/05/19 05:01:13;;;;;;;0.40;0.40;;;23.20;44.30;;;;;;5039206;28;20040;-59
2021/05/19 05:03:39;;;;;;;1.17;0.50;;;23.30;44.30;;;;;;5042354;28;20037;-60
2021/05/19 05:06:04;;;;;;;0.50;0.40;;;23.30;44.30;;;;;;5042228;28;20155;-59
2021/05/19 05:08:30;;;;;;;0.68;0.50;;;23.20;44.30;;;;;;5040632;28;20439;-60
2021/05/19 05:10:56;;;;;;;0.60;0.50;;;23.20;44.30;;;;;;5029251;28;20328;-58
2021/05/19 05:13:23;;;;;;;0.50;0.50;;;23.20;44.30;;;;;;5039347;28;20495;-60
2021/05/19 05:15:50;;;;;;;0.88;0.60;;;23.20;44.30;;;;;;5042786;28;20107;-59
2021/05/19 05:18:15;;;;;;;0.52;0.47;;;23.20;44.30;;;;;;5037330;28;20481;-59
2021/05/19 05:20:41;;;;;;;0.85;0.50;;;23.20;44.30;;;;;;5036131;28;20051;-58
2021/05/19 05:23:06;;;;;;;0.63;0.50;;;23.20;44.30;;;;;;5038926;28;20361;-59
2021/05/19 05:25:32;;;;;;;0.80;0.47;;;23.20;44.30;;;;;;5038094;28;20033;-60
2021/05/19 05:27:58;;;;;;;0.80;0.50;;;23.20;44.30;;;;;;5029324;28;20414;-59
2021/05/19 05:30:24;;;;;;;0.75;0.45;;;23.20;44.30;;;;;;5036426;28;20033;-60
2021/05/19 05:32:49;;;;;;;0.43;0.40;;;23.20;44.30;;;;;;5036441;28;20029;-58
2021/05/19 05:35:16;;;;;;;0.40;0.40;;;23.20;44.20;;;;;;5038723;28;20333;-59
2021/05/19 05:37:41;;;;;;;1.42;0.60;;;23.20;44.30;;;;;;5028383;28;20070;-59
2021/05/19 05:40:08;;;;;;;0.40;0.40;;;23.20;44.30;;;;;;5032921;28;20383;-59
2021/05/19 05:42:34;;;;;;;0.85;0.50;;;23.20;44.30;;;;;;5031018;28;20033;-59
2021/05/19 05:45:00;;;;;;;1.05;0.50;;;23.20;44.30;;;;;;5039015;28;20100;-59
2021/05/19 05:47:26;;;;;;;0.50;0.47;;;23.20;44.30;;;;;;5029559;28;20120;-59
2021/05/19 05:49:51;;;;;;;0.65;0.50;;;23.20;44.30;;;;;;5038292;28;20547;-57
2021/05/19 05:52:18;;;;;;;0.80;0.50;;;23.10;44.20;;;;;;5037358;28;20067;-58
2021/05/19 05:54:44;;;;;;;0.50;0.50;;;23.20;44.20;;;;;;5032756;28;20064;-59
2021/05/19 05:57:10;;;;;;;1.00;0.50;;;23.20;44.60;;;;;;5031680;28;20087;-59
2021/05/19 05:59:36;;;;;;;1.38;0.40;;;23.20;44.40;;;;;;5035898;28;20040;-59
2021/05/19 06:02:02;;;;;;;0.50;0.40;;;23.20;44.30;;;;;;5033765;28;20053;-60
2021/05/19 06:04:27;;;;;;;0.45;0.40;;;23.20;44.30;;;;;;5036185;28;20565;-60
2021/05/19 06:06:53;;;;;;;0.52;0.50;;;23.20;44.20;;;;;;5038973;28;20140;-59
2021/05/19 06:09:19;;;;;;;1.00;0.63;;;23.30;44.20;;;;;;5041558;28;20340;-59
2021/05/19 06:11:44;;;;;;;0.43;0.40;;;23.30;44.20;;;;;;5031469;28;20184;-59
2021/05/19 06:14:10;;;;;;;0.43;0.40;;;23.30;44.60;;;;;;5036602;28;20032;-59
2021/05/19 06:16:36;;;;;;;0.80;0.47;;;23.30;44.20;;;;;;5044341;28;20033;-59
2021/05/19 06:19:02;;;;;;;0.40;0.40;;;23.30;44.20;;;;;;5041222;28;20029;-59
2021/05/19 06:21:27;;;;;;;0.45;0.45;;;23.30;44.20;;;;;;5042697;28;20033;-59
2021/05/19 06:23:53;;;;;;;0.50;0.50;;;23.30;44.10;;;;;;5043549;28;20104;-60
2021/05/19 06:26:18;;;;;;;1.00;0.50;;;23.30;44.10;;;;;;5034408;28;20104;-59
2021/05/19 06:28:44;;;;;;;0.65;0.52;;;23.40;44.20;;;;;;5033438;28;20025;-59
2021/05/19 06:31:10;;;;;;;0.73;0.50;;;23.40;44.10;;;;;;5032877;28;20479;-60
2021/05/19 06:33:35;;;;;;;0.60;0.52;;;23.40;44.10;;;;;;5043401;28;20021;-59
2021/05/19 06:36:01;;;;;;;0.60;0.60;;;23.40;44.10;;;;;;5036228;28;20405;-59
2021/05/19 06:38:27;;;;;;;0.43;0.43;;;23.40;44.00;;;;;;5041355;28;20372;-60
2021/05/19 06:40:53;;;;;;;1.80;1.13;;;23.40;44.00;;;;;;5046300;28;20350;-59
2021/05/19 06:43:19;;;;;;;0.82;0.45;;;23.50;44.00;;;;;;5042635;28;20032;-59
2021/05/19 06:45:44;;;;;;;0.82;0.45;;;23.40;44.00;;;;;;5043074;28;20073;-58
2021/05/19 06:48:10;;;;;;;0.60;0.50;;;23.40;44.00;;;;;;5035233;28;20148;-59
2021/05/19 06:50:36;;;;;;;1.38;0.50;;;23.50;44.00;;;;;;5040884;28;20033;-60
2021/05/19 06:53:02;;;;;;;0.57;0.40;;;23.50;44.00;;;;;;5041361;28;20114;-59
2021/05/19 06:55:28;;;;;;;0.63;0.50;;;23.50;44.00;;;;;;5030973;28;20033;-59
2021/05/19 06:57:54;;;;;;;0.65;0.50;;;23.50;43.90;;;;;;5035151;28;20037;-58
2021/05/19 07:00:20;;;;;;;0.73;0.50;;;23.60;43.90;;;;;;5043024;28;20029;-59
2021/05/19 07:02:46;;;;;;;0.88;0.52;;;23.60;43.90;;;;;;5044815;28;20338;-59
2021/05/19 07:05:11;;;;;;;1.00;0.60;;;23.60;44.00;;;;;;5040942;28;20025;-59
2021/05/19 07:07:38;;;;;;;0.70;0.50;;;23.60;43.90;;;;;;5028148;28;20469;-58
2021/05/19 07:10:06;;;;;;;0.43;0.43;;;23.60;43.90;;;;;;5034141;28;20033;-60
2021/05/19 07:12:32;;;;;;;1.25;0.60;;;23.60;43.90;;;;;;5045571;28;20037;-59
2021/05/19 07:15:00;;;;;;;0.65;0.40;;;23.60;43.90;;;;;;5045832;28;20118;-60
2021/05/19 07:17:26;;;;;;;1.17;0.50;;;23.60;43.80;;;;;;5049464;28;20407;-59
2021/05/19 07:19:52;;;;;;;0.60;0.60;;;23.60;43.80;;;;;;5043925;28;20113;-60
2021/05/19 07:22:17;;;;;;;1.02;0.50;;;23.70;43.80;;;;;;5041409;28;20386;-60
2021/05/19 07:24:44;;;;;;;0.85;0.52;;;23.70;43.80;;;;;;5041460;28;20448;-60
2021/05/19 07:27:09;;;;;;;0.95;0.52;;;23.70;43.80;;;;;;5049039;28;20033;-59
2021/05/19 07:29:35;;;;;;;0.50;0.50;;;23.70;43.80;;;;;;5047449;28;20436;-59
2021/05/19 07:32:02;;;;;;;1.13;0.60;;;23.70;43.80;;;;;;5047141;28;20041;-58
2021/05/19 07:34:27;;;;;;;1.63;0.50;;;23.70;43.80;;;;;;5047895;28;20049;-59
2021/05/19 07:36:53;;;;;;;0.63;0.40;;;23.70;43.70;;;;;;5041531;28;20093;-59
2021/05/19 07:39:19;;;;;;;1.38;0.70;;;23.70;43.70;;;;;;5031834;28;20022;-60
2021/05/19 07:41:45;;;;;;;0.65;0.50;;;23.70;43.70;;;;;;5034024;28;20032;-59
2021/05/19 07:44:11;;;;;;;0.40;0.40;;;23.70;43.70;;;;;;5036687;28;20040;-60
2021/05/19 07:46:38;;;;;;;0.57;0.45;;;23.70;43.70;;;;;;5043790;28;20037;-59
2021/05/19 07:49:04;;;;;;;0.77;0.60;;;23.80;43.70;;;;;;5048238;28;20055;-58
2021/05/19 07:51:29;;;;;;;0.98;0.60;;;23.80;43.60;;;;;;5038901;28;20060;-59
2021/05/19 07:53:55;;;;;;;0.98;0.50;;;23.80;43.70;;;;;;5039979;28;20103;-60
2021/05/19 07:56:34;;;;;;;0.45;0.45;;;23.80;43.60;;;;;;5038362;28;20084;-59
2021/05/19 07:59:11;;;;;;;1.00;0.60;;;23.80;43.60;;;;;;5047620;28;20503;-60
2021/05/19 08:04:11;;;;;;;0.98;0.50;;;23.80;43.60;;;;;;5038928;28;20136;-59
2021/05/19 08:06:37;;;;;;;0.80;0.50;;;23.80;43.60;;;;;;5040832;28;20106;-59
2021/05/19 08:09:04;;;;;;;0.50;0.50;;;23.90;43.60;;;;;;5047592;28;20460;-59
2021/05/19 08:11:30;;;;;;;0.63;0.50;;;23.90;43.60;;;;;;5044986;28;20037;-60
2021/05/19 08:13:55;;;;;;;0.43;0.43;;;23.80;43.50;;;;;;5036128;28;20027;-59
2021/05/19 08:16:21;;;;;;;0.57;0.50;;;23.90;43.60;;;;;;5029882;28;20117;-59
2021/05/19 08:18:47;;;;;;;0.40;0.40;;;23.90;43.50;;;;;;5042606;28;20040;-59
2021/05/19 08:21:13;;;;;;;1.17;0.50;;;23.90;43.50;;;;;;5039432;28;20038;-61
2021/05/19 08:23:39;;;;;;;1.05;0.50;;;23.90;43.50;;;;;;5042190;28;20095;-59
2021/05/19 08:26:05;;;;;;;0.60;0.40;;;23.90;43.50;;;;;;5043871;28;20409;-60
2021/05/19 08:28:35;;;;;;;0.80;0.50;;;24.00;43.50;;;;;;5033746;28;20524;-58
2021/05/19 08:31:01;;;;;;;0.52;0.50;;;24.00;43.50;;;;;;5046765;28;20461;-60
2021/05/19 08:33:26;;;;;;;0.85;0.60;;;24.00;43.50;;;;;;5044849;28;20644;-60
2021/05/19 08:35:52;;;;;;;1.15;0.68;;;23.90;43.40;;;;;;5047266;28;20025;-59
2021/05/19 08:38:18;;;;;;;0.95;0.50;;;24.00;43.40;;;;;;5037440;28;20025;-59
2021/05/19 08:40:43;;;;;;;0.50;0.50;;;24.00;43.40;;;;;;5043280;28;20039;-60
2021/05/19 08:43:12;;;;;;;0.40;0.40;;;24.00;43.50;;;;;;5045508;28;20340;-58
2021/05/19 08:45:41;;;;;;;0.85;0.52;;;24.00;43.40;;;;;;5046519;28;20376;-59
2021/05/19 08:48:08;;;;;;;0.52;0.40;;;24.00;43.40;;;;;;5037193;28;20072;-60
2021/05/19 08:50:36;;;;;;;0.45;0.43;;;24.00;43.40;;;;;;5028769;28;20033;-58
2021/05/19 08:53:06;;;;;;;1.20;0.50;;;24.10;43.50;;;;;;5045789;28;20044;-59
2021/05/19 08:55:32;;;;;;;0.88;0.50;;;24.10;43.40;;;;;;5038286;28;20029;-59
2021/05/19 08:57:58;;;;;;;0.57;0.50;;;24.10;43.40;;;;;;5040798;28;20039;-60
2021/05/19 09:00:24;;;;;;;0.40;0.40;;;24.10;43.50;;;;;;5043184;28;20131;-60
2021/05/19 09:03:08;;;;;;;0.52;0.47;;;24.10;43.40;;;;;;5041808;28;20079;-59
2021/05/19 09:05:35;;;;;;;0.60;0.32;;;24.20;43.40;;;;;;5040528;28;20044;-59
2021/05/19 09:08:20;;;;;;;0.85;0.40;;;24.20;43.90;;;;;;5040997;28;20028;-61
2021/05/19 09:10:59;;;;;;;0.88;0.52;;;24.20;43.30;;;;;;5038124;28;20425;-62
2021/05/19 09:13:35;;;;;;;0.40;0.40;;;24.20;43.30;;;;;;5039727;28;20041;-59
2021/05/19 09:16:03;;;;;;;1.13;0.60;;;24.20;43.30;;;;;;5038746;28;20047;-60
2021/05/19 09:18:53;;;;;;;0.50;0.43;;;24.20;43.30;;;;;;5044761;28;20460;-60
2021/05/19 09:21:36;;;;;;;0.98;0.50;;;24.20;43.30;;;;;;5033811;28;20146;-59
2021/05/19 09:24:06;;;;;;;0.60;0.50;;;24.20;43.30;;;;;;5045853;28;20033;-59
2021/05/19 09:26:32;;;;;;;0.52;0.50;;;24.30;43.30;;;;;;5041270;28;20036;-59
2021/05/19 09:29:27;;;;;;;0.70;0.50;;;24.30;43.30;;;;;;5041781;28;20441;-59
2021/05/19 09:31:58;;;;;;;0.98;0.50;;;24.30;43.30;;;;;;5038822;28;20037;-59
2021/05/19 09:34:32;;;;;;;0.60;0.40;;;24.30;43.30;;;;;;5046651;28;20621;-59
2021/05/19 09:37:25;;;;;;;0.65;0.50;;;24.30;43.20;;;;;;5045408;28;20086;-59
2021/05/19 09:40:04;;;;;;;0.80;0.45;;;24.40;43.30;;;;;;5043195;28;20140;-60
2021/05/19 09:42:38;;;;;;;0.60;0.40;;;24.30;43.20;;;;;;5034431;28;20053;-60
2021/05/19 09:45:23;;;;;;;0.50;0.45;;;24.40;43.30;;;;;;5044615;28;20127;-59
2021/05/19 09:47:51;;;;;;;0.57;0.50;;;24.40;43.30;;;;;;5042003;28;20029;-59
2021/05/19 09:50:22;;;;;;;0.40;0.40;;;24.40;43.30;;;;;;5049871;28;20101;-61
2021/05/19 09:53:06;;;;;;;0.57;0.38;;;24.40;43.30;;;;;;5044173;28;20033;-57
2021/05/19 09:55:31;;;;;;;0.40;0.40;;;24.40;43.30;;;;;;5048485;28;20025;-61
2021/05/19 09:57:57;;;;;;;0.65;0.50;;;24.40;43.30;;;;;;5050899;28;20039;-60
2021/05/19 10:00:28;;;;;;;0.65;0.45;;;24.40;43.30;;;;;;5051288;28;20445;-60
2021/05/19 10:02:55;;;;;;;0.77;0.50;;;24.40;43.30;;;;;;5049504;28;20025;-59
2021/05/19 10:05:47;;;;;;;1.05;0.40;;;24.40;43.20;;;;;;5047941;28;20021;-59
2021/05/19 10:08:13;;;;;;;0.60;0.50;;;24.40;43.40;;;;;;5043118;28;20033;-59
2021/05/19 10:10:39;;;;;;;0.47;0.40;;;24.50;43.40;;;;;;5044990;28;20033;-60
2021/05/19 10:13:08;;;;;;;0.45;0.40;;;24.50;43.30;;;;;;5047483;28;20040;-59
2021/05/19 10:15:34;;;;;;;0.82;0.40;;;24.50;43.30;;;;;;5037227;28;20067;-59
2021/05/19 10:18:06;;;;;;;1.00;0.50;;;24.50;43.30;;;;;;5049392;28;20082;-61
2021/05/19 10:20:38;;;;;;;0.73;0.43;;;24.60;43.30;;;;;;5043057;28;20037;-60
2021/05/19 10:23:06;;;;;;;0.40;0.40;;;24.60;43.30;;;;;;5048448;28;20101;-60
2021/05/19 10:25:39;;;;;;;0.55;0.50;;;24.60;43.20;;;;;;5059497;28;20025;-60
2021/05/19 10:28:17;;;;;;;0.88;0.50;;;24.60;43.00;;;;;;5046765;28;20025;-60
2021/05/19 10:30:48;;;;;;;0.60;0.50;;;24.60;43.50;;;;;;5061446;28;20049;-59
2021/05/19 10:33:29;;;;;;;0.40;0.40;;;24.60;43.10;;;;;;5054250;28;20102;-60
2021/05/19 10:36:21;;;;;;;0.90;0.50;;;24.60;43.20;;;;;;5055703;28;20132;-59
2021/05/19 10:38:47;;;;;;;0.70;0.45;;;24.60;43.20;;;;;;5050871;28;20123;-58
2021/05/19 10:41:13;;;;;;;0.57;0.50;;;24.60;43.20;;;;;;5054498;28;20519;-60
2021/05/19 10:43:49;;;;;;;0.40;0.40;;;24.60;43.20;;;;;;5051385;28;20100;-61
2021/05/19 10:46:34;;;;;;;0.95;0.50;;;24.60;43.20;;;;;;5051178;28;20032;-60
2021/05/19 10:49:00;;;;;;;0.65;0.50;;;24.60;43.20;;;;;;5047641;28;20029;-61
2021/05/19 10:51:43;;;;;;;0.47;0.40;;;24.60;43.20;;;;;;5043822;28;20109;-59
2021/05/19 11:00:16;;;;;;;0.57;0.40;;;24.70;43.20;;;;;;5037122;28;20037;-61
2021/05/19 11:05:36;;;;;;;0.32;0.32;;;24.70;43.20;;;;;;5053946;28;20744;-62
2021/05/19 11:08:08;;;;;;;0.40;0.40;;;24.70;43.20;;;;;;5060046;28;20029;-63
2021/05/19 11:10:35;;;;;;;0.82;0.50;;;24.70;43.20;;;;;;5058007;28;20040;-63
2021/05/19 11:13:01;;;;;;;0.30;0.30;;;24.70;43.20;;;;;;5044462;28;20092;-61
2021/05/19 11:15:38;;;;;;;0.50;0.43;;;24.70;43.30;;;;;;5056413;28;20702;-61
2021/05/19 11:21:04;;;;;;;0.70;0.47;;;24.70;43.40;;;;;;5039392;28;20041;-63
2021/05/19 11:23:30;;;;;;;0.63;0.50;;;24.70;43.40;;;;;;5057687;28;20428;-60
2021/05/19 11:26:08;;;;;;;0.60;0.47;;;24.70;43.40;;;;;;5059773;28;20025;-60
2021/05/19 11:28:34;;;;;;;0.40;0.40;;;24.70;43.30;;;;;;5048035;28;20040;-63
2021/05/19 11:31:14;;;;;;;0.80;0.40;;;24.70;43.30;;;;;;5056226;28;20349;-62
2021/05/19 11:33:54;;;;;;;1.10;0.47;;;24.70;43.30;;;;;;5044692;28;20029;-61
2021/05/19 11:36:45;;;;;;;0.50;0.40;;;24.80;43.30;;;;;;5044015;28;20025;-61
2021/05/19 11:39:24;;;;;;;1.52;0.40;;;24.80;43.30;;;;;;5039014;28;20037;-61
2021/05/19 11:41:51;;;;;;;1.95;0.50;;;24.80;43.30;;;;;;5048651;28;20048;-62
2021/05/19 11:44:34;;;;;;;0.47;0.38;;;24.80;43.20;;;;;;5049801;28;20029;-62
2021/05/19 11:47:00;;;;;;;1.05;0.55;;;24.80;43.20;;;;;;5054427;28;20032;-62
2021/05/19 11:49:27;;;;;;;0.40;0.40;;;24.90;43.20;;;;;;5056110;28;20036;-62
2021/05/19 11:51:53;;;;;;;0.88;0.50;;;24.90;43.10;;;;;;5051246;28;20021;-63
2021/05/19 11:54:21;;;;;;;0.68;0.40;;;24.90;43.10;;;;;;5055221;28;20036;-61
2021/05/19 11:56:49;;;;;;;0.40;0.40;;;24.90;43.10;;;;;;5039343;28;20499;-59
2021/05/19 11:59:21;;;;;;;0.47;0.40;;;24.90;43.10;;;;;;5053691;28;20120;-62
2021/05/19 12:02:22;;;;;;;0.70;0.50;;;25.00;43.10;;;;;;5051533;28;20519;-62
2021/05/19 12:04:47;;;;;;;0.40;0.40;;;25.00;43.00;;;;;;5032872;28;20029;-60
2021/05/19 12:07:15;;;;;;;0.82;0.40;;;25.00;43.00;;;;;;5050104;28;20041;-61
2021/05/19 12:09:42;;;;;;;0.52;0.40;;;25.00;43.00;;;;;;5048473;28;20441;-61
2021/05/19 12:12:16;;;;;;;0.40;0.40;;;25.00;43.00;;;;;;5056775;28;20041;-60
2021/05/19 12:14:54;;;;;;;0.68;0.50;;;25.10;43.10;;;;;;5051298;28;20040;-61
2021/05/19 12:17:26;;;;;;;0.60;0.50;;;25.10;43.10;;;;;;5050059;28;20029;-63
2021/05/19 12:19:52;;;;;;;1.02;0.50;;;25.10;43.10;;;;;;5058395;28;20040;-61
2021/05/19 12:22:22;;;;;;;0.40;0.40;;;25.10;43.00;;;;;;5058191;28;20033;-60
2021/05/19 12:24:48;;;;;;;;;;;25.10;43.10;;;;;;5058068;28;20029;-59
2021/05/19 12:27:19;;;;;;;0.50;0.40;;;25.10;43.00;;;;;;5058447;28;19991;-59
2021/05/19 12:29:48;;;;;;;0.82;0.45;;;25.10;43.10;;;;;;5046640;28;20435;-61
2021/05/19 12:32:22;;;;;;;1.02;0.50;;;25.10;43.00;;;;;;5044541;28;20036;-59
2021/05/19 12:35:14;;;;;;;1.08;0.50;;;25.10;43.10;;;;;;5057243;28;20041;-60
2021/05/19 12:37:46;;;;;;;0.40;0.40;;;25.20;43.10;;;;;;5057143;28;20037;-59
2021/05/19 12:40:17;;;;;;;0.30;0.30;;;25.20;43.00;;;;;;5049018;28;20041;-61
2021/05/19 12:42:49;;;;;;;0.50;0.50;;;25.20;43.00;;;;;;5052755;28;20024;-61
2021/05/19 12:45:25;;;;;;;0.30;0.30;;;25.20;42.90;;;;;;5052350;28;20017;-60
2021/05/19 12:48:05;;;;;;;0.43;0.40;;;25.20;43.00;;;;;;5056221;28;20049;-60
2021/05/19 12:50:41;;;;;;;1.80;0.57;;;25.20;42.90;;;;;;5056485;28;20031;-60
2021/05/19 12:53:07;;;;;;;0.70;0.50;;;25.20;42.90;;;;;;5058561;28;20025;-61
2021/05/19 12:55:33;;;;;;;0.40;0.40;;;25.20;42.90;;;;;;5053392;28;21780;-59
2021/05/19 12:58:08;;;;;;;1.38;0.40;;;25.20;42.90;;;;;;5053401;28;20052;-60
2021/05/19 13:00:34;;;;;;;1.17;0.60;;;25.30;43.00;;;;;;5047847;28;20025;-61
2021/05/19 13:02:59;;;;;;;1.15;0.50;;;25.30;43.00;;;;;;5054819;28;20060;-61
2021/05/19 13:05:30;;;;;;;0.77;0.50;;;25.30;42.90;;;;;;5038008;28;20029;-60
2021/05/19 13:07:56;;;;;;;0.50;0.50;;;25.30;43.00;;;;;;5044747;28;20036;-59